»·PEaware :: N8979T L52-L88

N8979T :: L52-L88

FLIGHT INFORMATION

Flight Status: Arrived
Operator: Privately registered:
United States
More flights under this callsign
Pilot: Brett J. (1348)
Aircraft: PIPER PA-18 SUPER CUB
(PA18)
More flights by this aircraft type
Origin: L52 Oceano Co
United States
Destination: L88 New Cuyama
United States
More flights between these airports :: More routes between these airports
Route:
File this flight plan on PilotEdge
Remarks:
Altitude:
(Current/Filed)
7,500ft
Speed:
(Current/Filed)
120kts
Departed: 02-Feb-19 03:54 PM
Arrived: 02-Feb-19 04:28 PM
Distance/Time
Traveled:
47nm/0:34
Distance/Time
To Go:
Arrived

Flight Plot

Page will automatically refresh every two minutes.


Map Options




Map Legend


Flown Route
Filed Route
Departure Airport
Arrival Airport
Navaid (VOR, NDB)
Fix

Horizontal Profiles

Position Reports

Time Latitude Longitude Heading Altitude Ground
Speed
02-Feb-19 15:47 35.103738 -120.625003 235 16ft 0kts
02-Feb-19 15:48 35.103738 -120.625003 235 16ft 0kts
02-Feb-19 15:49 35.103738 -120.625003 235 16ft 0kts
02-Feb-19 15:50 35.103738 -120.625003 235 16ft 0kts
02-Feb-19 15:51 35.103738 -120.625003 235 16ft 0kts
02-Feb-19 15:52 35.103554 -120.625258 211 16ft 0kts
02-Feb-19 15:53 35.101839 -120.623054 124 43ft 64kts
02-Feb-19 15:54 35.106989 -120.602462 5 1230ft 76kts
02-Feb-19 15:55 35.103430 -120.603510 56 1429ft 96kts
02-Feb-19 15:56 35.102152 -120.617577 161 542ft 89kts
02-Feb-19 15:57 35.098606 -120.596376 57 837ft 78kts
02-Feb-19 15:59 35.108340 -120.574191 83 1592ft 76kts
02-Feb-19 16:00 35.105487 -120.545447 99 2446ft 92kts
02-Feb-19 16:01 35.104299 -120.511085 92 3051ft 98kts
02-Feb-19 16:02 35.109164 -120.500100 88 3680ft 87kts
02-Feb-19 16:03 35.111715 -120.467726 80 4507ft 97kts
02-Feb-19 16:04 35.116418 -120.435443 78 5123ft 104kts
02-Feb-19 16:05 35.122331 -120.400521 79 5690ft 103kts
02-Feb-19 16:06 35.128310 -120.364735 80 6111ft 102kts
02-Feb-19 16:07 35.134679 -120.330220 77 6683ft 106kts
02-Feb-19 16:08 35.130387 -120.296100 112 7007ft 99kts
02-Feb-19 16:09 35.121428 -120.261763 103 7046ft 109kts
02-Feb-19 16:10 35.117427 -120.227634 100 7425ft 96kts
02-Feb-19 16:11 35.123004 -120.202145 318 7343ft 114kts
02-Feb-19 16:12 35.110381 -120.198700 115 7224ft 105kts
02-Feb-19 16:13 35.098841 -120.163732 112 7748ft 113kts
02-Feb-19 16:14 35.085638 -120.122338 112 7506ft 135kts
02-Feb-19 16:15 35.073097 -120.079090 107 7423ft 131kts
02-Feb-19 16:15 35.064654 -120.043209 103 7489ft 125kts
02-Feb-19 16:16 35.055015 -119.999717 106 7448ft 131kts
02-Feb-19 16:18 35.044114 -119.948563 104 7457ft 129kts
02-Feb-19 16:19 35.036188 -119.904634 105 7459ft 133kts
02-Feb-19 16:19 35.026196 -119.868251 110 7373ft 134kts
02-Feb-19 16:20 35.012677 -119.825271 112 7230ft 130kts
02-Feb-19 16:21 34.994405 -119.785711 119 6082ft 134kts
02-Feb-19 16:23 34.977159 -119.746922 119 3670ft 107kts
02-Feb-19 16:23 34.967368 -119.724420 119 2971ft 74kts
02-Feb-19 16:24 34.958384 -119.700689 112 3203ft 79kts
02-Feb-19 16:25 34.953275 -119.674795 115 2880ft 74kts
02-Feb-19 16:26 34.936119 -119.669267 227 2620ft 61kts
02-Feb-19 16:27 34.939624 -119.684835 296 2181ft 30kts
02-Feb-19 16:28 34.942697 -119.691182 356 2152ft 15kts
02-Feb-19 16:29 34.942641 -119.690561 162 2153ft 0kts
02-Feb-19 16:30 34.942641 -119.690561 162 2153ft 0kts
02-Feb-19 16:31 34.942641 -119.690561 162 2153ft 0kts
02-Feb-19 16:32 34.942641 -119.690561 162 2153ft 0kts
02-Feb-19 16:33 34.942641 -119.690561 162 2153ft 0kts
02-Feb-19 16:34 34.942641 -119.690561 162 2153ft 0kts
02-Feb-19 16:35 34.942641 -119.690561 162 2153ft 0kts
02-Feb-19 16:36 34.942641 -119.690561 162 2153ft 0kts
02-Feb-19 16:37 34.942641 -119.690561 162 2153ft 0kts
02-Feb-19 16:38 34.942641 -119.690561 162 2153ft 0kts
02-Feb-19 16:39 34.942641 -119.690561 162 2153ft 0kts
02-Feb-19 16:40 34.942641 -119.690561 162 2153ft 0kts
02-Feb-19 16:41 34.942641 -119.690561 162 2153ft 0kts
02-Feb-19 16:42 34.942641 -119.690561 163 2153ft 0kts

Navigation Log

Ident Type
Flight plan parsing failed, navigation log unavailable